Time;durP1;ratioP1;P1;durP2;ratioP2;P2;SDS_P1;SDS_P2;PMS_P1;PMS_P2;Temp;Humidity;BMP_temperature;BMP_pressure;BME280_temperature;BME280_humidity;BME280_pressure;Samples;Min_cycle;Max_cycle;Signal;HPM_P1;HPM_P2
2021/08/21 00:02:24;;;;;;;5.35;4.25;;;;;;;28.72;44.78;101247.13;143732;582;47012;-87
2021/08/21 00:04:51;;;;;;;5.78;4.93;;;;;;;28.70;44.82;101243.84;143733;597;47002;-86
2021/08/21 00:07:18;;;;;;;7.95;4.90;;;;;;;28.65;44.85;101243.94;143725;642;50002;-86
2021/08/21 00:09:49;;;;;;;7.80;4.78;;;;;;;28.63;45.03;101248.97;143735;639;47004;-88
2021/08/21 00:12:16;;;;;;;5.87;4.80;;;;;;;28.62;44.65;101250.94;143733;595;46012;-86
2021/08/21 00:14:43;;;;;;;9.50;5.43;;;;;;;28.59;44.89;101234.97;143731;586;47002;-85
2021/08/21 00:17:10;;;;;;;6.80;5.05;;;;;;;28.55;44.58;101236.69;143732;582;46004;-85
2021/08/21 00:19:37;;;;;;;6.18;5.10;;;;;;;28.55;45.01;101234.75;143735;725;47006;-85
2021/08/21 00:22:05;;;;;;;6.40;5.00;;;;;;;28.56;44.90;101227.28;143732;668;46010;-87
2021/08/21 00:24:32;;;;;;;6.25;4.68;;;;;;;28.59;44.15;101223.91;143733;583;47002;-88
2021/08/21 00:26:59;;;;;;;5.37;4.87;;;;;;;28.64;44.51;101223.81;143723;599;49002;-86
2021/08/21 00:29:26;;;;;;;6.95;4.60;;;;;;;28.62;44.60;101217.75;143733;770;47006;-86
2021/08/21 00:31:53;;;;;;;9.02;4.80;;;;;;;28.58;44.40;101225.03;143731;590;47020;-87
2021/08/21 00:34:20;;;;;;;5.30;4.80;;;;;;;28.61;44.57;101224.41;143731;582;47002;-86
2021/08/21 00:36:47;;;;;;;7.60;4.85;;;;;;;28.61;44.96;101221.66;143730;691;46004;-88
2021/08/21 00:39:14;;;;;;;5.22;4.72;;;;;;;28.58;45.09;101225.88;143734;578;47004;-85
2021/08/21 00:41:42;;;;;;;11.07;5.03;;;;;;;28.56;44.67;101228.12;143727;602;47009;-87
2021/08/21 00:44:10;;;;;;;5.47;4.43;;;;;;;28.56;43.40;101224.50;143731;567;47016;-88
2021/08/21 00:47:15;;;;;;;5.78;4.70;;;;;;;28.57;43.31;101231.69;143732;603;45010;-87
2021/08/21 00:49:54;;;;;;;6.87;5.18;;;;;;;28.57;43.09;101238.03;143735;608;47004;-85
2021/08/21 00:52:32;;;;;;;8.30;5.07;;;;;;;28.58;43.25;101242.44;143733;607;46010;-87
2021/08/21 00:54:59;;;;;;;6.00;4.68;;;;;;;28.53;43.22;101237.03;143735;577;46011;-87
2021/08/21 00:57:27;;;;;;;5.72;5.12;;;;;;;28.47;43.45;101231.91;143733;626;45010;-87
2021/08/21 00:59:54;;;;;;;5.45;4.93;;;;;;;28.43;43.69;101231.69;143737;616;47004;-86
2021/08/21 01:02:22;;;;;;;8.93;5.07;;;;;;;28.40;43.39;101235.88;143731;654;47010;-86
2021/08/21 01:04:55;;;;;;;8.30;5.50;;;;;;;28.39;43.26;101236.22;143734;572;47004;-87
2021/08/21 01:07:48;;;;;;;7.60;5.10;;;;;;;28.36;43.64;101234.06;143733;595;46002;-86
2021/08/21 01:10:17;;;;;;;5.95;5.22;;;;;;;28.32;43.97;101228.34;143732;601;47010;-87
2021/08/21 01:12:47;;;;;;;6.65;5.03;;;;;;;28.32;43.31;101235.78;143732;601;47004;-87
2021/08/21 01:15:14;;;;;;;7.20;5.10;;;;;;;28.28;43.47;101236.41;143734;584;47002;-86
2021/08/21 01:17:43;;;;;;;8.57;5.55;;;;;;;28.28;43.07;101233.63;143732;592;46004;-86
2021/08/21 01:20:10;;;;;;;6.82;5.45;;;;;;;28.29;43.26;101228.94;143735;599;47007;-88
2021/08/21 01:22:38;;;;;;;7.25;5.57;;;;;;;28.28;43.10;101233.63;143734;566;46026;-87
2021/08/21 01:25:13;;;;;;;6.85;5.65;;;;;;;28.28;43.78;101235.59;143733;584;47002;-86
2021/08/21 01:27:40;;;;;;;8.80;5.20;;;;;;;28.27;43.68;101234.75;143732;579;45924;-87
2021/08/21 01:30:13;;;;;;;5.72;5.12;;;;;;;28.29;42.27;101231.72;143735;608;46017;-87
2021/08/21 01:32:40;;;;;;;7.82;5.43;;;;;;;28.26;41.20;101237.84;143729;598;47993;-87
2021/08/21 01:35:08;;;;;;;6.15;5.35;;;;;;;28.25;41.67;101241.72;143733;688;46011;-89
2021/08/21 01:37:35;;;;;;;6.62;5.07;;;;;;;28.26;43.44;101233.13;143731;609;45010;-85
2021/08/21 01:40:04;;;;;;;6.43;5.22;;;;;;;28.24;43.81;101238.13;143735;601;47006;-86
2021/08/21 01:42:31;;;;;;;9.30;5.07;;;;;;;28.23;43.77;101242.03;143732;590;47011;-88
2021/08/21 01:44:58;;;;;;;6.37;5.32;;;;;;;28.22;43.31;101247.84;143734;622;47004;-88
2021/08/21 01:47:25;;;;;;;6.00;5.30;;;;;;;28.22;42.55;101245.09;143725;614;48010;-87
2021/08/21 01:50:03;;;;;;;7.78;5.50;;;;;;;28.22;42.23;101237.66;143736;600;47004;-87
2021/08/21 01:52:30;;;;;;;6.18;5.57;;;;;;;28.20;42.36;101242.66;143731;591;47010;-88
2021/08/21 01:54:57;;;;;;;13.95;9.45;;;;;;;28.16;42.71;101238.03;143732;587;47004;-88
2021/08/21 01:57:24;;;;;;;9.25;5.53;;;;;;;28.08;42.71;101234.84;143732;579;46002;-88
2021/08/21 01:59:52;;;;;;;6.72;5.50;;;;;;;27.99;43.23;101240.25;143736;609;47002;-86
2021/08/21 02:02:21;;;;;;;7.70;5.07;;;;;;;28.00;43.71;101241.03;143734;594;46028;-86
2021/08/21 02:04:48;;;;;;;10.30;5.53;;;;;;;27.99;43.16;101239.41;143733;600;47004;-85
2021/08/21 02:07:15;;;;;;;6.57;5.20;;;;;;;28.04;43.48;101238.53;143727;609;48010;-87
2021/08/21 02:09:43;;;;;;;7.05;5.15;;;;;;;28.01;43.84;101231.66;143736;606;47004;-87
2021/08/21 02:12:12;;;;;;;7.90;5.57;;;;;;;28.04;43.80;101233.00;143733;590;46011;-87
2021/08/21 02:14:39;;;;;;;6.35;5.40;;;;;;;28.03;43.64;101234.91;143733;611;47004;-86
2021/08/21 02:17:06;;;;;;;6.72;5.20;;;;;;;28.03;44.01;101234.13;143734;615;45011;-86
2021/08/21 02:19:33;;;;;;;6.47;5.35;;;;;;;28.02;44.02;101236.03;143736;655;47004;-87
2021/08/21 02:22:02;;;;;;;8.77;6.00;;;;;;;28.04;44.26;101238.53;143726;588;49004;-87
2021/08/21 02:24:30;;;;;;;6.85;5.15;;;;;;;28.04;44.44;101231.03;143732;642;47002;-86
2021/08/21 02:26:59;;;;;;;5.70;4.97;;;;;;;28.07;43.72;101230.44;143732;598;46004;-87
2021/08/21 02:29:27;;;;;;;6.12;5.07;;;;;;;28.09;43.78;101233.72;143735;583;48004;-87
2021/08/21 02:31:58;;;;;;;6.60;5.40;;;;;;;28.09;43.46;101233.72;143732;595;47008;-87
2021/08/21 02:34:26;;;;;;;7.68;5.60;;;;;;;28.10;43.38;101231.78;143733;583;47004;-86
2021/08/21 02:36:54;;;;;;;6.50;5.22;;;;;;;28.10;43.44;101227.09;143727;568;50008;-86
2021/08/21 02:39:21;;;;;;;6.10;5.10;;;;;;;28.13;43.55;101232.00;143734;590;49002;-86
2021/08/21 02:41:48;;;;;;;5.70;5.03;;;;;;;28.13;43.52;101234.78;143734;567;47008;-88
2021/08/21 02:44:15;;;;;;;6.72;5.30;;;;;;;28.16;43.64;101235.25;143734;675;47004;-86
2021/08/21 02:46:43;;;;;;;5.43;4.90;;;;;;;28.15;44.08;101237.22;143737;580;45010;-86
2021/08/21 02:49:09;;;;;;;8.13;5.40;;;;;;;28.13;43.36;101233.94;143733;635;47002;-87
2021/08/21 02:51:37;;;;;;;6.45;5.03;;;;;;;28.13;42.05;101226.50;143733;582;47010;-86
2021/08/21 02:54:04;;;;;;;6.93;5.18;;;;;;;28.15;41.63;101231.69;143734;623;47004;-87
2021/08/21 02:56:31;;;;;;;6.25;4.80;;;;;;;28.16;41.74;101235.25;143734;568;46010;-85
2021/08/21 02:58:58;;;;;;;7.05;5.00;;;;;;;28.17;41.45;101234.13;143736;602;47004;-86
2021/08/21 03:01:26;;;;;;;7.57;4.75;;;;;;;28.17;42.27;101237.75;143734;581;47010;-87
2021/08/21 03:03:53;;;;;;;5.75;4.90;;;;;;;28.17;41.79;101240.50;143732;605;47002;-88
2021/08/21 03:06:20;;;;;;;8.88;4.82;;;;;;;28.15;41.99;101239.97;143718;623;50008;-87
2021/08/21 03:08:48;;;;;;;5.55;5.03;;;;;;;28.14;41.99;101239.19;143737;652;47006;-87
2021/08/21 03:11:15;;;;;;;7.25;5.05;;;;;;;28.18;41.72;101244.91;143733;629;47011;-87
2021/08/21 03:13:42;;;;;;;7.15;4.90;;;;;;;28.17;41.66;101245.19;143732;673;47002;-85
2021/08/21 03:16:10;;;;;;;5.32;4.70;;;;;;;28.14;41.67;101244.69;143735;591;45924;-88
2021/08/21 03:18:37;;;;;;;7.55;5.20;;;;;;;28.15;41.87;101245.50;143737;576;47002;-87
2021/08/21 03:21:04;;;;;;;6.75;4.93;;;;;;;28.12;41.97;101246.09;143733;610;47010;-85
2021/08/21 03:23:31;;;;;;;5.90;5.22;;;;;;;28.10;42.39;101248.34;143735;627;47004;-87
2021/08/21 03:25:58;;;;;;;7.50;4.85;;;;;;;28.04;42.65;101247.59;143733;588;46002;-87
2021/08/21 03:28:26;;;;;;;7.60;4.75;;;;;;;28.03;42.31;101243.19;143737;589;47002;-87
2021/08/21 03:30:54;;;;;;;5.07;4.57;;;;;;;28.06;42.74;101252.84;143718;574;49010;-87
2021/08/21 03:33:21;;;;;;;5.75;4.75;;;;;;;28.04;42.51;101257.84;143734;591;47002;-88
2021/08/21 03:35:47;;;;;;;5.62;5.03;;;;;;;28.02;42.54;101251.81;143735;599;46002;-87
2021/08/21 03:38:15;;;;;;;7.15;5.70;;;;;;;27.99;42.32;101261.50;143737;594;47004;-88
2021/08/21 03:40:42;;;;;;;13.62;5.22;;;;;;;28.01;42.23;101266.72;143720;570;46010;-87
2021/08/21 03:43:09;;;;;;;7.25;5.05;;;;;;;28.02;42.51;101262.84;143733;671;47004;-89
2021/08/21 03:45:40;;;;;;;8.65;5.35;;;;;;;28.06;42.78;101266.66;143732;573;45010;-88
2021/08/21 03:48:08;;;;;;;9.38;4.87;;;;;;;28.06;42.51;101267.44;143737;567;47004;-88
2021/08/21 03:50:35;;;;;;;10.15;5.75;;;;;;;28.07;42.19;101269.09;143732;594;47010;-87
2021/08/21 03:53:03;;;;;;;8.27;4.90;;;;;;;28.10;42.72;101267.69;143730;643;47002;-87
2021/08/21 03:55:30;;;;;;;7.72;5.10;;;;;;;28.11;42.50;101272.09;143735;605;45010;-88
2021/08/21 03:57:58;;;;;;;8.45;5.35;;;;;;;28.11;42.53;101272.91;143736;579;47006;-87
2021/08/21 04:00:25;;;;;;;6.55;4.45;;;;;;;28.15;42.14;101267.59;143734;568;47008;-87
2021/08/21 04:02:53;;;;;;;16.67;5.20;;;;;;;28.21;41.56;101271.06;143734;609;47004;-86
2021/08/21 04:05:19;;;;;;;12.32;4.87;;;;;;;28.23;41.50;101268.84;143730;598;47004;-88
2021/08/21 04:07:46;;;;;;;9.55;5.20;;;;;;;28.25;41.28;101269.34;143733;584;46922;-87
2021/08/21 04:10:14;;;;;;;10.27;4.95;;;;;;;28.31;41.58;101262.59;143731;584;49011;-89
2021/08/21 04:12:41;;;;;;;9.00;5.00;;;;;;;28.32;42.51;101264.25;143732;610;47011;-87
2021/08/21 04:15:08;;;;;;;6.45;5.10;;;;;;;28.32;42.02;101268.94;143733;585;46924;-87
2021/08/21 04:17:35;;;;;;;11.02;5.80;;;;;;;28.32;41.88;101269.78;143737;600;47005;-86
2021/08/21 04:20:04;;;;;;;20.45;6.15;;;;;;;28.33;42.10;101278.88;143733;657;47008;-86
2021/08/21 04:22:31;;;;;;;6.22;5.18;;;;;;;28.34;42.34;101266.69;143732;590;47002;-86
2021/08/21 04:24:58;;;;;;;9.23;5.90;;;;;;;28.32;42.74;101285.50;143735;605;45011;-87
2021/08/21 04:27:25;;;;;;;10.32;6.35;;;;;;;28.32;43.04;101269.78;143735;577;47004;-87
2021/08/21 04:29:53;;;;;;;11.52;6.25;;;;;;;28.33;43.29;101278.88;143733;625;47008;-85
2021/08/21 04:32:20;;;;;;;7.97;4.90;;;;;;;28.34;42.71;101275.78;143733;590;47005;-88
2021/08/21 04:34:47;;;;;;;12.52;5.80;;;;;;;28.35;42.64;101280.19;143735;605;45010;-88
2021/08/21 04:37:16;;;;;;;14.38;6.68;;;;;;;28.37;42.85;101282.66;143732;567;48994;-86
2021/08/21 04:39:43;;;;;;;11.15;5.75;;;;;;;28.40;42.81;101284.81;143735;569;46029;-86
2021/08/21 04:42:10;;;;;;;10.85;5.70;;;;;;;28.41;43.06;101281.75;143732;588;47004;-88
2021/08/21 04:44:37;;;;;;;9.43;5.75;;;;;;;28.44;43.78;101283.88;143733;603;45926;-88
2021/08/21 04:47:04;;;;;;;10.13;6.25;;;;;;;28.49;42.29;101280.19;143736;621;47004;-87
2021/08/21 04:49:31;;;;;;;46.65;41.83;;;;;;;28.50;42.49;101279.06;143735;583;46012;-86
2021/08/21 04:51:59;;;;;;;22.13;19.67;;;;;;;28.53;42.86;101283.16;143728;573;47004;-86
2021/08/21 04:54:26;;;;;;;12.02;9.48;;;;;;;28.53;42.74;101281.22;143730;568;45011;-86
2021/08/21 04:56:53;;;;;;;9.85;6.53;;;;;;;28.52;42.65;101287.87;143736;604;47004;-87
2021/08/21 04:59:20;;;;;;;8.07;5.68;;;;;;;28.50;42.93;101284.59;143733;582;47030;-88
2021/08/21 05:01:48;;;;;;;12.63;5.53;;;;;;;28.50;42.89;101290.13;143733;623;47002;-87
2021/08/21 05:04:15;;;;;;;11.18;6.28;;;;;;;28.49;42.18;101291.25;143734;611;46008;-89
2021/08/21 05:06:42;;;;;;;6.03;5.05;;;;;;;28.51;42.77;101293.69;143735;582;47002;-86
2021/08/21 05:09:10;;;;;;;10.98;5.50;;;;;;;28.53;42.80;101292.28;143735;598;46010;-87
2021/08/21 05:11:37;;;;;;;14.95;6.03;;;;;;;28.58;42.99;101294.13;143730;605;48006;-87
2021/08/21 05:14:04;;;;;;;15.48;6.18;;;;;;;28.63;43.19;101304.25;143735;602;45021;-87
2021/08/21 05:16:31;;;;;;;11.63;6.05;;;;;;;28.63;42.33;101305.06;143737;593;47002;-87
2021/08/21 05:19:06;;;;;;;6.47;5.35;;;;;;;28.68;42.04;101304.16;143736;573;46013;-87
2021/08/21 05:21:36;;;;;;;7.35;5.22;;;;;;;28.71;41.84;101312.63;143733;644;47004;-88
2021/08/21 05:24:03;;;;;;;9.02;5.00;;;;;;;28.75;42.90;101315.66;143735;568;45011;-86
2021/08/21 05:26:31;;;;;;;10.93;5.30;;;;;;;28.84;43.04;101312.97;143737;584;47004;-87
2021/08/21 05:28:58;;;;;;;8.98;5.95;;;;;;;28.91;42.81;101313.38;143735;573;46012;-86
2021/08/21 05:31:25;;;;;;;11.43;5.55;;;;;;;29.02;42.28;101311.19;143726;569;48002;-88
2021/08/21 05:33:55;;;;;;;7.57;5.50;;;;;;;29.10;42.11;101315.19;143735;629;45011;-87
2021/08/21 05:36:22;;;;;;;9.60;5.82;;;;;;;29.16;42.55;101325.00;143735;594;48006;-86
2021/08/21 05:38:49;;;;;;;10.02;5.37;;;;;;;29.21;41.89;101324.91;143735;583;46010;-86
2021/08/21 05:41:17;;;;;;;10.77;5.78;;;;;;;29.25;41.89;101316.78;143735;588;47004;-86
2021/08/21 05:43:44;;;;;;;7.57;4.82;;;;;;;29.29;41.84;101324.16;143735;584;45010;-88
2021/08/21 05:46:11;;;;;;;7.25;5.10;;;;;;;29.33;42.05;101327.09;143733;567;47002;-87
2021/08/21 05:48:38;;;;;;;6.60;4.65;;;;;;;29.39;42.62;101331.44;143735;656;46011;-87
2021/08/21 05:51:07;;;;;;;6.68;4.82;;;;;;;29.45;41.66;101334.91;143734;632;47004;-87
2021/08/21 05:53:34;;;;;;;9.50;5.30;;;;;;;29.50;41.46;101337.56;143735;570;45011;-86
2021/08/21 05:56:01;;;;;;;9.98;4.68;;;;;;;29.51;41.46;101336.44;143736;599;47004;-87
2021/08/21 05:58:28;;;;;;;8.23;4.82;;;;;;;29.51;41.94;101333.66;143734;584;46012;-87
2021/08/21 06:00:55;;;;;;;6.15;5.03;;;;;;;29.52;41.46;101338.06;143733;618;47002;-86
2021/08/21 06:03:23;;;;;;;6.25;5.30;;;;;;;29.52;41.54;101343.59;143731;668;46004;-86
2021/08/21 06:05:50;;;;;;;10.85;4.45;;;;;;;29.53;42.30;101338.87;143735;585;47004;-88
2021/08/21 06:08:17;;;;;;;5.32;4.18;;;;;;;29.50;42.31;101343.88;143733;581;47008;-87
2021/08/21 06:10:45;;;;;;;7.53;5.03;;;;;;;29.50;42.00;101343.88;143734;601;47004;-85
2021/08/21 06:13:12;;;;;;;8.27;4.90;;;;;;;29.53;42.17;101344.41;143734;567;45926;-86
2021/08/21 06:15:39;;;;;;;8.63;4.97;;;;;;;29.55;41.08;101347.69;143735;595;47005;-87
2021/08/21 06:18:07;;;;;;;11.23;4.25;;;;;;;29.57;41.17;101348.19;143733;689;47008;-88
2021/08/21 06:20:33;;;;;;;10.20;4.07;;;;;;;29.53;41.20;101350.78;143726;604;47015;-89
2021/08/21 06:23:00;;;;;;;6.18;4.55;;;;;;;29.56;40.85;101349.31;143734;597;47011;-88
2021/08/21 06:25:27;;;;;;;6.25;4.10;;;;;;;29.58;41.31;101353.41;143738;628;46005;-89
2021/08/21 06:27:54;;;;;;;8.52;3.83;;;;;;;29.61;40.79;101350.00;143733;707;47010;-88
2021/08/21 06:30:22;;;;;;;5.00;4.00;;;;;;;29.65;41.18;101353.00;143735;581;47004;-86
2021/08/21 06:32:49;;;;;;;4.53;3.85;;;;;;;29.71;41.03;101356.44;143735;600;45010;-85
2021/08/21 06:35:16;;;;;;;4.65;3.60;;;;;;;29.77;41.90;101355.16;143735;610;47018;-88
2021/08/21 06:37:44;;;;;;;6.10;3.80;;;;;;;29.85;41.61;101353.59;143734;594;46010;-86
2021/08/21 06:40:11;;;;;;;5.55;3.40;;;;;;;29.89;41.21;101351.84;143735;608;47004;-87
2021/08/21 06:42:38;;;;;;;5.35;3.55;;;;;;;29.95;40.89;101350.59;143734;570;45010;-87
2021/08/21 06:45:07;;;;;;;4.22;3.47;;;;;;;29.99;40.58;101351.63;143736;586;47002;-86
2021/08/21 06:47:34;;;;;;;4.60;3.40;;;;;;;30.05;40.77;101349.53;143734;568;47013;-88
2021/08/21 06:50:02;;;;;;;5.55;3.37;;;;;;;30.06;40.38;101349.22;143733;628;47004;-88
2021/08/21 06:52:30;;;;;;;4.43;3.28;;;;;;;30.12;40.88;101346.31;143735;618;45010;-86
2021/08/21 06:54:56;;;;;;;5.05;3.15;;;;;;;30.19;40.69;101352.22;143736;583;47004;-87
2021/08/21 06:57:23;;;;;;;6.47;3.50;;;;;;;30.25;40.83;101350.94;143729;580;48010;-87
2021/08/21 06:59:50;;;;;;;4.97;3.47;;;;;;;30.29;41.34;101351.13;143733;652;47002;-86
2021/08/21 07:02:18;;;;;;;4.18;3.45;;;;;;;30.33;40.78;101354.91;143733;610;46004;-89
2021/08/21 07:04:45;;;;;;;4.25;3.20;;;;;;;30.37;40.63;101350.38;143736;618;47002;-88
2021/08/21 07:07:12;;;;;;;4.55;3.22;;;;;;;30.45;40.50;101348.78;143734;601;47010;-86
2021/08/21 07:09:39;;;;;;;3.80;3.47;;;;;;;30.51;41.71;101348.31;143734;599;47004;-88
2021/08/21 07:12:07;;;;;;;6.00;3.45;;;;;;;30.56;40.04;101350.16;143734;603;45928;-87
2021/08/21 07:14:34;;;;;;;6.35;3.95;;;;;;;30.64;40.30;101349.38;143736;566;47002;-86
2021/08/21 07:17:01;;;;;;;4.68;3.45;;;;;;;30.73;40.08;101351.34;143734;605;46026;-87
2021/08/21 07:19:28;;;;;;;4.12;3.47;;;;;;;30.81;39.52;101353.34;143733;584;47014;-86
2021/08/21 07:21:55;;;;;;;5.47;3.45;;;;;;;30.83;39.68;101362.97;143733;581;45928;-87
2021/08/21 07:24:23;;;;;;;5.50;3.87;;;;;;;30.85;39.09;101360.69;143735;573;47004;-87
2021/08/21 07:26:50;;;;;;;5.30;3.30;;;;;;;30.87;39.96;101359.56;143723;593;48002;-86
2021/08/21 07:29:17;;;;;;;4.53;3.67;;;;;;;30.90;39.03;101361.69;143733;573;47002;-87
2021/08/21 07:31:44;;;;;;;3.65;3.17;;;;;;;30.98;38.95;101364.47;143733;598;45010;-89
2021/08/21 07:34:11;;;;;;;8.10;3.62;;;;;;;31.07;38.87;101372.81;143735;616;47006;-88
2021/08/21 07:36:39;;;;;;;6.15;3.40;;;;;;;31.07;38.52;101372.81;143732;568;47008;-87
2021/08/21 07:39:06;;;;;;;4.65;3.37;;;;;;;31.12;38.51;101366.31;143732;578;47002;-87
2021/08/21 07:41:36;;;;;;;5.25;4.00;;;;;;;31.19;39.34;101363.91;143732;626;46004;-86
2021/08/21 07:44:04;;;;;;;4.95;3.60;;;;;;;31.22;38.06;101354.09;143734;568;47002;-87
2021/08/21 07:46:31;;;;;;;4.22;3.62;;;;;;;31.27;37.79;101370.59;143733;591;47011;-86
2021/08/21 07:48:58;;;;;;;7.40;3.75;;;;;;;31.27;37.36;101368.63;143733;585;47004;-86
2021/08/21 07:51:25;;;;;;;6.30;3.67;;;;;;;31.29;37.29;101363.59;143733;641;45926;-87
2021/08/21 07:53:52;;;;;;;5.12;3.45;;;;;;;31.24;36.85;101362.94;143735;707;47002;-88
2021/08/21 07:56:19;;;;;;;4.97;3.25;;;;;;;31.08;37.27;101368.06;143730;651;47010;-86
2021/08/21 07:58:46;;;;;;;4.55;3.00;;;;;;;31.09;37.48;101367.78;143733;594;46004;-88
2021/08/21 08:01:13;;;;;;;7.15;3.75;;;;;;;31.18;37.49;101367.81;143726;567;49002;-88
2021/08/21 08:03:41;;;;;;;7.03;4.30;;;;;;;31.26;37.61;101361.44;143733;572;47004;-86
2021/08/21 08:06:08;;;;;;;6.32;3.22;;;;;;;31.29;36.76;101358.03;143733;573;46012;-86
2021/08/21 08:08:35;;;;;;;6.45;3.60;;;;;;;31.26;37.28;101355.91;143733;597;47003;-88
2021/08/21 08:11:02;;;;;;;6.00;3.62;;;;;;;31.43;36.64;101354.28;143732;586;46004;-85
2021/08/21 08:13:30;;;;;;;6.97;3.72;;;;;;;31.57;36.23;101360.50;143735;582;47004;-87
2021/08/21 08:15:57;;;;;;;9.52;4.25;;;;;;;31.64;36.57;101353.62;143733;592;46019;-89
2021/08/21 08:18:24;;;;;;;4.35;3.33;;;;;;;31.72;35.78;101361.97;143731;641;48002;-88
2021/08/21 08:20:51;;;;;;;5.62;3.60;;;;;;;31.75;36.03;101361.34;143733;572;46004;-87
2021/08/21 08:23:18;;;;;;;4.12;3.30;;;;;;;31.79;35.09;101353.16;143736;577;46019;-87
2021/08/21 08:25:45;;;;;;;4.90;3.58;;;;;;;31.90;35.27;101353.62;143732;623;47019;-87
2021/08/21 08:28:12;;;;;;;6.35;3.62;;;;;;;32.01;35.39;101360.50;99690;57;10047883;-86
2021/08/21 08:30:39;;;;;;;5.28;3.45;;;;;;;31.90;35.16;101356.41;143735;590;46007;-87
2021/08/21 08:33:07;;;;;;;4.82;3.97;;;;;;;31.88;35.03;101355.91;143723;579;50006;-88
2021/08/21 08:35:34;;;;;;;5.47;3.80;;;;;;;32.04;34.61;101351.47;143733;573;46012;-88
2021/08/21 08:38:01;;;;;;;7.43;3.40;;;;;;;32.13;34.66;101345.91;143732;622;47002;-88
2021/08/21 08:40:29;;;;;;;6.35;3.70;;;;;;;32.10;34.90;101357.69;143734;710;45012;-87
2021/08/21 08:43:01;;;;;;;6.22;3.75;;;;;;;32.04;35.16;101350.66;143729;606;48008;-87
2021/08/21 08:45:29;;;;;;;6.50;3.50;;;;;;;31.99;35.00;101354.44;143731;597;47010;-88
2021/08/21 08:47:56;;;;;;;4.03;3.05;;;;;;;31.97;34.76;101348.41;143730;657;47004;-87
2021/08/21 08:50:23;;;;;;;3.85;3.12;;;;;;;31.91;34.76;101352.50;143732;601;45012;-87
2021/08/21 08:52:52;;;;;;;4.72;3.47;;;;;;;31.94;34.44;101349.06;143734;596;47012;-87
2021/08/21 08:55:21;;;;;;;4.07;3.05;;;;;;;32.17;33.96;101344.09;143731;594;47010;-88
2021/08/21 08:57:49;;;;;;;7.07;3.58;;;;;;;32.11;34.94;101342.66;143733;596;47004;-89
2021/08/21 09:00:26;;;;;;;5.20;3.42;;;;;;;32.13;35.37;101348.66;143732;570;45013;-86
2021/08/21 09:02:55;;;;;;;5.85;3.90;;;;;;;32.12;34.80;101354.56;143733;603;47002;-86
2021/08/21 09:05:25;;;;;;;4.45;3.10;;;;;;;31.88;35.80;101353.97;143733;589;47010;-89
2021/08/21 09:07:54;;;;;;;5.82;3.40;;;;;;;31.79;36.60;101346.78;143726;575;48005;-85
2021/08/21 09:10:47;;;;;;;4.65;2.92;;;;;;;31.72;36.49;101348.09;143731;665;46004;-86
2021/08/21 09:13:15;;;;;;;6.32;3.10;;;;;;;31.92;37.14;101353.31;143731;634;48006;-88
2021/08/21 09:15:48;;;;;;;7.72;3.55;;;;;;;32.23;36.24;101344.72;143731;568;47009;-87
2021/08/21 09:18:25;;;;;;;4.80;3.17;;;;;;;32.50;35.33;101339.91;143732;594;46004;-88
2021/08/21 09:21:00;;;;;;;5.12;3.33;;;;;;;32.40;36.58;101346.66;143731;600;45920;-88
2021/08/21 09:23:38;;;;;;;5.15;3.80;;;;;;;32.26;36.89;101343.25;143734;597;47004;-86
2021/08/21 09:26:24;;;;;;;4.68;3.00;;;;;;;32.49;35.85;101343.84;143733;586;46012;-87
2021/08/21 09:28:52;;;;;;;3.83;2.90;;;;;;;32.60;35.65;101349.84;143731;584;47004;-87
2021/08/21 09:31:21;;;;;;;8.77;3.30;;;;;;;32.78;35.94;101356.13;143728;599;48010;-87
2021/08/21 09:34:19;;;;;;;3.35;2.90;;;;;;;32.71;35.48;101351.09;143735;584;47004;-86
2021/08/21 09:36:46;;;;;;;4.78;3.08;;;;;;;32.67;35.34;101350.12;143731;602;47011;-87
2021/08/21 09:39:15;;;;;;;5.37;3.15;;;;;;;32.51;35.02;101349.91;143732;617;47002;-86
2021/08/21 09:41:59;;;;;;;3.97;3.12;;;;;;;32.74;34.36;101357.97;143730;582;47002;-86
2021/08/21 09:44:43;;;;;;;6.47;4.15;;;;;;;32.73;34.56;101348.81;143733;705;47004;-87
2021/08/21 09:47:15;;;;;;;4.80;3.05;;;;;;;32.90;35.58;101344.31;143729;592;48019;-85
2021/08/21 09:49:43;;;;;;;9.25;2.75;;;;;;;32.99;34.93;101328.41;143733;586;46010;-86
2021/08/21 09:52:14;;;;;;;8.98;4.37;;;;;;;33.14;34.57;101338.09;143732;576;45914;-87
2021/08/21 09:54:43;;;;;;;7.60;3.28;;;;;;;33.17;34.25;101336.62;143735;597;47006;-86
2021/08/21 09:57:19;;;;;;;8.43;3.10;;;;;;;33.36;34.29;101331.41;143731;577;48004;-85
2021/08/21 09:59:56;;;;;;;7.35;2.87;;;;;;;33.22;35.53;101330.84;143728;616;48011;-86
2021/08/21 10:02:24;;;;;;;4.53;2.70;;;;;;;33.14;34.60;101329.75;143732;579;46004;-86
2021/08/21 10:04:52;;;;;;;4.43;2.70;;;;;;;33.25;34.67;101331.00;143733;621;47002;-85
2021/08/21 10:07:22;;;;;;;5.47;2.83;;;;;;;33.36;35.47;101334.19;143730;631;47009;-87
2021/08/21 10:09:52;;;;;;;8.07;3.05;;;;;;;33.19;35.78;101331.50;143731;589;47004;-87
2021/08/21 10:12:22;;;;;;;5.22;2.97;;;;;;;33.23;35.00;101324.13;143731;649;45928;-85
2021/08/21 10:14:50;;;;;;;5.15;3.00;;;;;;;33.39;35.32;101332.72;143734;596;47004;-86
2021/08/21 10:17:18;;;;;;;4.82;2.60;;;;;;;33.35;33.88;101335.34;143728;604;48008;-87
2021/08/21 10:19:47;;;;;;;7.25;3.20;;;;;;;33.23;35.57;101326.91;143731;614;47004;-86
2021/08/21 10:22:16;;;;;;;6.07;2.90;;;;;;;33.22;35.65;101320.53;143731;613;46928;-87
2021/08/21 10:24:47;;;;;;;6.40;3.03;;;;;;;33.28;35.10;101325.88;143735;582;47002;-87
2021/08/21 10:27:36;;;;;;;4.68;2.78;;;;;;;33.32;35.30;101319.31;143731;575;47010;-87
2021/08/21 10:30:09;;;;;;;4.55;3.08;;;;;;;33.33;35.17;101307.03;143731;600;47002;-85
2021/08/21 10:32:42;;;;;;;6.68;2.72;;;;;;;33.42;35.37;101309.75;143731;600;46004;-86
2021/08/21 10:35:11;;;;;;;4.68;3.12;;;;;;;33.62;35.42;101305.31;143733;606;47002;-86
2021/08/21 10:37:45;;;;;;;4.60;3.20;;;;;;;33.72;35.25;101315.22;143720;630;49004;-87
2021/08/21 10:40:47;;;;;;;8.23;2.72;;;;;;;33.63;34.89;101306.94;143732;570;47004;-86
2021/08/21 10:43:14;;;;;;;8.60;3.15;;;;;;;33.66;35.38;101309.03;143732;590;45920;-85
2021/08/21 10:45:47;;;;;;;7.35;3.05;;;;;;;33.47;34.99;101298.37;143733;568;47004;-85
2021/08/21 10:48:52;;;;;;;7.07;3.60;;;;;;;33.46;34.86;101304.31;143728;645;47926;-87
2021/08/21 10:51:39;;;;;;;5.93;3.00;;;;;;;33.52;34.77;101302.97;143730;573;48002;-85
2021/08/21 10:54:44;;;;;;;4.90;2.65;;;;;;;33.21;35.87;101307.78;143732;596;45008;-85
2021/08/21 10:57:31;;;;;;;6.85;3.50;;;;;;;33.14;35.96;101296.34;143733;578;47006;-85
2021/08/21 10:59:58;;;;;;;6.25;3.00;;;;;;;33.30;35.65;101293.78;143732;577;46012;-86
2021/08/21 11:02:42;;;;;;;3.53;2.67;;;;;;;33.40;35.22;101293.38;143733;592;47002;-86
2021/08/21 11:05:47;;;;;;;4.05;2.90;;;;;;;33.42;35.91;101293.06;143730;588;47004;-86
2021/08/21 11:08:14;;;;;;;8.00;3.83;;;;;;;33.41;35.99;101300.56;143735;569;47002;-86
2021/08/21 11:10:41;;;;;;;6.28;2.90;;;;;;;33.36;36.13;101300.78;143727;585;50010;-86
2021/08/21 11:13:10;;;;;;;3.90;2.65;;;;;;;33.11;37.29;101289.50;143732;583;47004;-87
2021/08/21 11:15:37;;;;;;;4.20;2.87;;;;;;;33.08;37.36;101281.03;143730;592;48007;-86
2021/08/21 11:18:22;;;;;;;5.10;2.75;;;;;;;33.00;37.01;101285.50;143731;604;50006;-85
2021/08/21 11:20:49;;;;;;;5.05;2.50;;;;;;;33.07;36.96;101282.97;143731;627;48010;-86
2021/08/21 11:23:18;;;;;;;4.05;2.67;;;;;;;33.13;36.46;101275.25;143731;579;47004;-87
2021/08/21 11:25:46;;;;;;;5.50;3.28;;;;;;;33.16;36.89;101271.78;143732;572;46002;-87
2021/08/21 11:28:28;;;;;;;4.55;2.83;;;;;;;33.22;36.43;101272.38;143734;589;47002;-88
2021/08/21 11:31:12;;;;;;;8.43;2.78;;;;;;;33.32;36.72;101266.41;143733;572;46025;-87
2021/08/21 11:33:43;;;;;;;5.50;3.42;;;;;;;33.31;37.64;101258.38;143732;569;47004;-87
2021/08/21 11:36:10;;;;;;;4.28;2.67;;;;;;;33.14;37.29;101270.50;143733;576;46002;-87